createdAt,value
2023-04-04T00:00:47.629Z,580.00
2023-04-04T00:01:47.683Z,580.00
2023-04-04T00:02:47.740Z,581.00
2023-04-04T00:03:47.856Z,580.00
2023-04-04T00:04:47.836Z,579.00
2023-04-04T00:05:47.887Z,579.00
2023-04-04T00:06:47.937Z,580.00
2023-04-04T00:07:47.948Z,579.00
2023-04-04T00:08:47.946Z,579.00
2023-04-04T00:09:48.039Z,580.00
2023-04-04T00:10:48.053Z,579.00
2023-04-04T00:11:48.101Z,578.00
2023-04-04T00:12:48.137Z,576.00
2023-04-04T00:13:48.203Z,572.00
2023-04-04T00:14:48.232Z,573.00
2023-04-04T00:15:48.328Z,572.00
2023-04-04T00:16:48.304Z,575.00
2023-04-04T00:17:48.381Z,575.00
2023-04-04T00:18:48.407Z,575.00
2023-04-04T00:19:48.425Z,577.00
2023-04-04T00:20:48.506Z,576.00
2023-04-04T00:21:48.560Z,574.00
2023-04-04T00:22:48.608Z,576.00
2023-04-04T00:23:48.639Z,579.00
2023-04-04T00:24:48.705Z,580.00
2023-04-04T00:25:48.735Z,580.00
2023-04-04T00:26:48.778Z,578.00
2023-04-04T00:27:48.823Z,576.00
2023-04-04T00:28:48.888Z,577.00
2023-04-04T00:29:48.918Z,576.00
2023-04-04T00:30:48.959Z,574.00
2023-04-04T00:31:49.041Z,574.00
2023-04-04T00:32:49.105Z,576.00
2023-04-04T00:33:49.132Z,573.00
2023-04-04T00:34:49.163Z,573.00
2023-04-04T00:35:49.241Z,574.00
2023-04-04T00:36:49.227Z,573.00
2023-04-04T00:37:49.322Z,574.00
2023-04-04T00:38:49.339Z,575.00
2023-04-04T00:39:49.426Z,577.00
2023-04-04T00:40:49.451Z,577.00
2023-04-04T00:41:49.479Z,576.00
2023-04-04T00:42:49.517Z,575.00
2023-04-04T00:43:49.571Z,572.00
2023-04-04T00:44:49.631Z,570.00
2023-04-04T00:45:49.712Z,571.00
2023-04-04T00:46:57.469Z,571.00
2023-04-04T00:47:49.798Z,572.00
2023-04-04T00:48:49.742Z,572.00
2023-04-04T00:49:49.725Z,575.00
2023-04-04T00:50:49.742Z,576.00
2023-04-04T00:51:49.706Z,577.00
2023-04-04T00:52:49.725Z,575.00
2023-04-04T00:53:49.708Z,576.00
2023-04-04T00:54:49.689Z,575.00
2023-04-04T00:55:49.679Z,573.00
2023-04-04T00:56:49.680Z,573.00
2023-04-04T00:57:49.662Z,571.00
2023-04-04T00:58:51.036Z,571.00
2023-04-04T00:59:49.708Z,572.00
2023-04-04T01:00:49.879Z,573.00
2023-04-04T01:01:49.808Z,573.00
2023-04-04T01:02:49.960Z,572.00
2023-04-04T01:03:49.995Z,571.00
2023-04-04T01:04:49.971Z,570.00
2023-04-04T01:05:50.019Z,571.00
2023-04-04T01:06:50.067Z,574.00
2023-04-04T01:07:50.107Z,575.00
2023-04-04T01:08:50.186Z,575.00
2023-04-04T01:09:50.243Z,577.00
2023-04-04T01:10:50.292Z,577.00
2023-04-04T01:11:50.336Z,576.00
2023-04-04T01:12:50.422Z,576.00
2023-04-04T01:13:50.449Z,576.00
2023-04-04T01:14:50.491Z,576.00
2023-04-04T01:15:50.542Z,577.00
2023-04-04T01:16:50.689Z,578.00
2023-04-04T01:17:50.683Z,576.00
2023-04-04T01:18:50.725Z,574.00
2023-04-04T01:19:50.803Z,571.00
2023-04-04T01:20:50.829Z,572.00
2023-04-04T01:21:50.895Z,572.00
2023-04-04T01:22:50.942Z,572.00
2023-04-04T01:23:50.998Z,571.00
2023-04-04T01:24:51.040Z,571.00
2023-04-04T01:25:51.127Z,569.00
2023-04-04T01:26:51.154Z,568.00
2023-04-04T01:27:51.222Z,568.00
2023-04-04T01:28:51.277Z,568.00
2023-04-04T01:29:51.320Z,570.00
2023-04-04T01:30:51.366Z,572.00
2023-04-04T01:31:51.402Z,572.00
2023-04-04T01:32:51.526Z,573.00
2023-04-04T01:33:51.546Z,575.00
2023-04-04T01:34:51.553Z,573.00
2023-04-04T01:35:51.591Z,574.00
2023-04-04T01:36:51.672Z,575.00
2023-04-04T01:37:51.721Z,576.00
2023-04-04T01:38:51.728Z,578.00
2023-04-04T01:39:51.814Z,583.00
2023-04-04T01:40:51.862Z,583.00
2023-04-04T01:41:51.934Z,580.00
2023-04-04T01:42:51.986Z,577.00
2023-04-04T01:43:52.019Z,577.00
2023-04-04T01:44:52.994Z,578.00
2023-04-04T01:45:52.180Z,578.00
2023-04-04T01:46:52.213Z,578.00
2023-04-04T01:47:52.346Z,578.00
2023-04-04T01:48:52.301Z,579.00
2023-04-04T01:49:52.331Z,578.00
2023-04-04T01:50:52.367Z,576.00
2023-04-04T01:51:52.440Z,573.00
2023-04-04T01:52:52.499Z,570.00
2023-04-04T01:53:52.529Z,568.00
2023-04-04T01:54:52.590Z,568.00
2023-04-04T01:55:52.652Z,569.00
2023-04-04T01:56:52.690Z,568.00
2023-04-04T01:57:52.733Z,568.00
2023-04-04T01:58:52.822Z,570.00
2023-04-04T01:59:52.834Z,572.00
2023-04-04T02:00:52.888Z,571.00
2023-04-04T02:01:53.062Z,570.00
2023-04-04T02:02:53.031Z,569.00
2023-04-04T02:03:53.124Z,567.00
2023-04-04T02:04:53.119Z,566.00
2023-04-04T02:05:53.185Z,569.00
2023-04-04T02:06:53.218Z,568.00
2023-04-04T02:07:53.275Z,566.00
2023-04-04T02:08:53.320Z,567.00
2023-04-04T02:09:53.350Z,570.00
2023-04-04T02:10:53.423Z,570.00
2023-04-04T02:11:53.454Z,569.00
2023-04-04T02:12:53.511Z,573.00
2023-04-04T02:13:53.570Z,573.00
2023-04-04T02:14:53.628Z,574.00
2023-04-04T02:15:53.718Z,573.00
2023-04-04T02:16:53.729Z,574.00
2023-04-04T02:17:53.868Z,572.00
2023-04-04T02:18:53.842Z,572.00
2023-04-04T02:19:53.863Z,570.00
2023-04-04T02:20:53.952Z,568.00
2023-04-04T02:21:54.003Z,569.00
2023-04-04T02:22:54.112Z,571.00
2023-04-04T02:23:54.084Z,571.00
2023-04-04T02:24:54.128Z,572.00
2023-04-04T02:25:54.199Z,573.00
2023-04-04T02:26:54.267Z,573.00
2023-04-04T02:27:54.334Z,570.00
2023-04-04T02:28:54.377Z,569.00
2023-04-04T02:29:54.446Z,571.00
2023-04-04T02:30:54.506Z,573.00
2023-04-04T02:31:54.551Z,571.00
2023-04-04T02:32:54.625Z,571.00
2023-04-04T02:33:54.654Z,574.00
2023-04-04T02:34:54.683Z,573.00
2023-04-04T02:35:54.756Z,574.00
2023-04-04T02:36:54.809Z,574.00
2023-04-04T02:37:54.943Z,575.00
2023-04-04T02:38:54.913Z,576.00
2023-04-04T02:39:54.989Z,576.00
2023-04-04T02:40:55.047Z,577.00
2023-04-04T02:41:55.097Z,577.00
2023-04-04T02:42:55.140Z,576.00
2023-04-04T02:43:55.219Z,576.00
2023-04-04T02:44:55.266Z,577.00
2023-04-04T02:45:55.338Z,576.00
2023-04-04T02:46:55.390Z,574.00
2023-04-04T02:47:55.493Z,574.00
2023-04-04T02:48:55.501Z,576.00
2023-04-04T02:49:55.521Z,576.00
2023-04-04T02:50:55.597Z,574.00
2023-04-04T02:51:55.640Z,574.00
2023-04-04T02:52:55.672Z,574.00
2023-04-04T02:53:55.781Z,574.00
2023-04-04T02:54:55.806Z,571.00
2023-04-04T02:55:55.868Z,573.00
2023-04-04T02:56:55.935Z,574.00
2023-04-04T02:57:55.996Z,574.00
2023-04-04T02:58:56.070Z,575.00
2023-04-04T02:59:56.131Z,575.00
2023-04-04T03:00:56.245Z,574.00
2023-04-04T03:01:56.274Z,572.00
2023-04-04T03:02:56.475Z,572.00
2023-04-04T03:03:56.453Z,574.00
2023-04-04T03:04:56.434Z,571.00
2023-04-04T03:05:56.504Z,569.00
2023-04-04T03:06:56.558Z,565.00
2023-04-04T03:07:56.623Z,565.00
2023-04-04T03:08:56.686Z,567.00
2023-04-04T03:09:56.759Z,569.00
2023-04-04T03:10:56.828Z,572.00
2023-04-04T03:11:56.863Z,574.00
2023-04-04T03:12:56.907Z,576.00
2023-04-04T03:13:57.002Z,576.00
2023-04-04T03:14:57.023Z,575.00
2023-04-04T03:15:57.101Z,575.00
2023-04-04T03:16:57.186Z,575.00
2023-04-04T03:17:57.247Z,577.00
2023-04-04T03:18:57.300Z,580.00
2023-04-04T03:19:57.318Z,580.00
2023-04-04T03:20:57.413Z,579.00
2023-04-04T03:21:57.486Z,580.00
2023-04-04T03:22:57.514Z,578.00
2023-04-04T03:23:57.598Z,577.00
2023-04-04T03:24:57.664Z,576.00
2023-04-04T03:25:57.715Z,575.00
2023-04-04T03:26:57.777Z,574.00
2023-04-04T03:27:57.835Z,573.00
2023-04-04T03:28:57.899Z,571.00
2023-04-04T03:29:57.958Z,571.00
2023-04-04T03:30:57.985Z,573.00
2023-04-04T03:31:58.086Z,572.00
2023-04-04T03:32:58.147Z,573.00
2023-04-04T03:33:58.169Z,572.00
2023-04-04T03:34:58.240Z,571.00
2023-04-04T03:35:58.370Z,569.00
2023-04-04T03:36:58.366Z,568.00
2023-04-04T03:37:58.455Z,569.00
2023-04-04T03:38:58.486Z,567.00
2023-04-04T03:39:58.538Z,568.00
2023-04-04T03:40:58.622Z,569.00
2023-04-04T03:41:58.696Z,569.00
2023-04-04T03:42:58.752Z,569.00
2023-04-04T03:43:58.800Z,569.00
2023-04-04T03:44:58.883Z,568.00
2023-04-04T03:45:58.940Z,567.00
2023-04-04T03:46:58.984Z,569.00
2023-04-04T03:47:59.081Z,571.00
2023-04-04T03:48:59.111Z,572.00
2023-04-04T03:49:59.189Z,571.00
2023-04-04T03:50:59.272Z,572.00
2023-04-04T03:51:59.283Z,570.00
2023-04-04T03:52:59.355Z,570.00
2023-04-04T03:53:59.410Z,573.00
2023-04-04T03:54:59.469Z,574.00
2023-04-04T03:55:59.544Z,572.00
2023-04-04T03:56:59.632Z,574.00
2023-04-04T03:57:59.660Z,573.00
2023-04-04T03:58:59.767Z,573.00
2023-04-04T03:59:59.783Z,576.00
2023-04-04T04:00:59.863Z,575.00
2023-04-04T04:01:59.926Z,574.00
2023-04-04T04:03:00.083Z,573.00
2023-04-04T04:04:00.135Z,571.00
2023-04-04T04:05:00.134Z,572.00
2023-04-04T04:06:00.163Z,573.00
2023-04-04T04:07:00.248Z,570.00
2023-04-04T04:08:00.315Z,570.00
2023-04-04T04:09:00.407Z,573.00
2023-04-04T04:10:00.444Z,572.00
2023-04-04T04:11:00.521Z,573.00
2023-04-04T04:12:00.570Z,573.00
2023-04-04T04:13:00.626Z,575.00
2023-04-04T04:14:00.720Z,574.00
2023-04-04T04:15:00.771Z,575.00
2023-04-04T04:16:00.894Z,571.00
2023-04-04T04:17:00.902Z,572.00
2023-04-04T04:18:01.003Z,572.00
2023-04-04T04:19:01.006Z,571.00
2023-04-04T04:20:01.067Z,571.00
2023-04-04T04:21:01.158Z,573.00
2023-04-04T04:22:01.210Z,576.00
2023-04-04T04:23:01.239Z,575.00
2023-04-04T04:24:01.302Z,572.00
2023-04-04T04:25:01.361Z,571.00
2023-04-04T04:26:01.441Z,571.00
2023-04-04T04:27:01.471Z,572.00
2023-04-04T04:28:01.546Z,572.00
2023-04-04T04:29:01.606Z,574.00
2023-04-04T04:30:01.695Z,573.00
2023-04-04T04:31:01.754Z,574.00
2023-04-04T04:32:01.800Z,575.00
2023-04-04T04:33:01.923Z,577.00
2023-04-04T04:34:01.932Z,576.00
2023-04-04T04:35:01.973Z,574.00
2023-04-04T04:36:02.142Z,574.00
2023-04-04T04:37:02.123Z,575.00
2023-04-04T04:38:02.178Z,577.00
2023-04-04T04:39:02.224Z,576.00
2023-04-04T04:40:02.316Z,577.00
2023-04-04T04:41:02.372Z,576.00
2023-04-04T04:42:02.418Z,574.00
2023-04-04T04:43:02.498Z,574.00
2023-04-04T04:44:02.573Z,574.00
2023-04-04T04:45:02.625Z,574.00
2023-04-04T04:46:02.683Z,573.00
2023-04-04T04:47:02.788Z,575.00
2023-04-04T04:48:02.858Z,579.00
2023-04-04T04:49:02.885Z,579.00
2023-04-04T04:50:02.934Z,581.00
2023-04-04T04:51:02.997Z,582.00
2023-04-04T04:52:03.076Z,584.00
2023-04-04T04:53:03.110Z,583.00
2023-04-04T04:54:03.140Z,581.00
2023-04-04T04:55:03.224Z,581.00
2023-04-04T04:56:03.301Z,580.00
2023-04-04T04:57:03.393Z,580.00
2023-04-04T04:58:03.434Z,578.00
2023-04-04T04:59:03.516Z,576.00
2023-04-04T05:00:03.558Z,576.00
2023-04-04T05:01:03.649Z,576.00
2023-04-04T05:02:03.672Z,576.00
2023-04-04T05:03:03.823Z,576.00
2023-04-04T05:04:03.812Z,574.00
2023-04-04T05:05:03.855Z,574.00
2023-04-04T05:06:03.965Z,573.00
2023-04-04T05:07:03.988Z,573.00
2023-04-04T05:08:04.053Z,572.00
2023-04-04T05:09:04.140Z,573.00
2023-04-04T05:10:04.188Z,573.00
2023-04-04T05:11:05.493Z,573.00
2023-04-04T05:12:04.358Z,573.00
2023-04-04T05:13:04.378Z,575.00
2023-04-04T05:14:04.419Z,576.00
2023-04-04T05:15:04.500Z,576.00
2023-04-04T05:16:04.587Z,577.00
2023-04-04T05:17:04.600Z,577.00
2023-04-04T05:18:04.796Z,576.00
2023-04-04T05:19:04.755Z,574.00
2023-04-04T05:20:04.888Z,576.00
2023-04-04T05:21:04.832Z,577.00
2023-04-04T05:22:04.923Z,576.00
2023-04-04T05:23:05.010Z,578.00
2023-04-04T05:24:05.061Z,576.00
2023-04-04T05:25:05.092Z,574.00
2023-04-04T05:26:05.232Z,575.00
2023-04-04T05:27:05.284Z,576.00
2023-04-04T05:28:05.295Z,577.00
2023-04-04T05:29:05.363Z,578.00
2023-04-04T05:30:05.398Z,579.00
2023-04-04T05:31:05.507Z,577.00
2023-04-04T05:32:05.567Z,576.00
2023-04-04T05:33:05.660Z,576.00
2023-04-04T05:34:05.683Z,578.00
2023-04-04T05:35:05.771Z,579.00
2023-04-04T05:36:05.864Z,579.00
2023-04-04T05:37:05.855Z,578.00
2023-04-04T05:38:05.946Z,580.00
2023-04-04T05:39:05.977Z,579.00
2023-04-04T05:40:06.052Z,580.00
2023-04-04T05:41:06.094Z,581.00
2023-04-04T05:42:06.166Z,581.00
2023-04-04T05:43:06.194Z,581.00
2023-04-04T05:44:06.338Z,582.00
2023-04-04T05:45:06.290Z,582.00
2023-04-04T05:46:13.459Z,578.00
2023-04-04T05:47:06.362Z,579.00
2023-04-04T05:48:06.376Z,579.00
2023-04-04T05:49:06.340Z,577.00
2023-04-04T05:50:06.361Z,578.00
2023-04-04T05:51:06.321Z,578.00
2023-04-04T05:52:06.365Z,578.00
2023-04-04T05:53:06.301Z,580.00
2023-04-04T05:54:06.350Z,580.00
2023-04-04T05:55:06.304Z,579.00
2023-04-04T05:56:06.276Z,581.00
2023-04-04T05:57:06.300Z,580.00
2023-04-04T05:58:06.261Z,580.00
2023-04-04T05:59:06.326Z,579.00
2023-04-04T06:00:06.281Z,578.00
2023-04-04T06:01:06.245Z,578.00
2023-04-04T06:02:06.249Z,579.00
2023-04-04T06:03:06.254Z,578.00
2023-04-04T06:04:06.239Z,579.00
2023-04-04T06:05:06.261Z,579.00
2023-04-04T06:06:06.279Z,582.00
2023-04-04T06:07:06.211Z,580.00
2023-04-04T06:08:06.202Z,580.00
2023-04-04T06:09:08.686Z,580.00
2023-04-04T06:10:06.411Z,581.00
2023-04-04T06:11:06.430Z,580.00
2023-04-04T06:12:06.501Z,578.00
2023-04-04T06:13:06.521Z,581.00
2023-04-04T06:14:06.542Z,582.00
2023-04-04T06:15:06.633Z,583.00
2023-04-04T06:16:06.716Z,583.00
2023-04-04T06:17:06.709Z,586.00
2023-04-04T06:18:06.858Z,584.00
2023-04-04T06:19:06.785Z,584.00
2023-04-04T06:20:06.886Z,584.00
2023-04-04T06:21:06.932Z,583.00
2023-04-04T06:22:06.953Z,583.00
2023-04-04T06:23:06.993Z,580.00
2023-04-04T06:24:07.028Z,579.00
2023-04-04T06:25:07.104Z,577.00
2023-04-04T06:26:07.151Z,579.00
2023-04-04T06:27:07.148Z,581.00
2023-04-04T06:28:07.220Z,581.00
2023-04-04T06:29:07.262Z,581.00
2023-04-04T06:30:08.180Z,580.00
2023-04-04T06:31:07.374Z,581.00
2023-04-04T06:32:07.385Z,581.00
2023-04-04T06:33:07.427Z,578.00
2023-04-04T06:34:07.405Z,577.00
2023-04-04T06:35:07.433Z,578.00
2023-04-04T06:36:07.542Z,578.00
2023-04-04T06:37:07.555Z,578.00
2023-04-04T06:38:07.548Z,578.00
2023-04-04T06:39:07.613Z,576.00
2023-04-04T06:40:07.622Z,574.00
2023-04-04T06:41:07.641Z,572.00
2023-04-04T06:42:07.692Z,571.00
2023-04-04T06:43:07.709Z,571.00
2023-04-04T06:44:07.761Z,571.00
2023-04-04T06:45:07.820Z,571.00
2023-04-04T06:46:07.822Z,572.00
2023-04-04T06:47:07.832Z,572.00
2023-04-04T06:48:07.921Z,573.00
2023-04-04T06:49:07.860Z,575.00
2023-04-04T06:50:07.890Z,577.00
2023-04-04T06:51:07.910Z,575.00
2023-04-04T06:52:07.934Z,579.00
2023-04-04T06:53:07.970Z,579.00
2023-04-04T06:54:07.986Z,585.00
2023-04-04T06:55:07.968Z,583.00
2023-04-04T06:56:07.991Z,582.00
2023-04-04T06:57:08.003Z,581.00
2023-04-04T06:58:08.034Z,582.00
2023-04-04T06:59:08.040Z,583.00
2023-04-04T07:00:08.054Z,583.00
2023-04-04T07:01:08.100Z,583.00
2023-04-04T07:02:08.091Z,583.00
2023-04-04T07:03:08.076Z,582.00
2023-04-04T07:04:08.072Z,581.00
2023-04-04T07:05:08.059Z,584.00
2023-04-04T07:06:08.072Z,585.00
2023-04-04T07:07:08.052Z,584.00
2023-04-04T07:08:08.061Z,582.00
2023-04-04T07:09:12.840Z,583.00
2023-04-04T07:10:09.129Z,582.00
2023-04-04T07:11:08.088Z,581.00
2023-04-04T07:12:08.033Z,581.00
2023-04-04T07:13:08.020Z,583.00
2023-04-04T07:14:08.021Z,583.00
2023-04-04T07:15:08.012Z,582.00
2023-04-04T07:16:08.029Z,580.00
2023-04-04T07:17:21.229Z,580.00
2023-04-04T07:18:09.133Z,580.00
2023-04-04T07:19:07.964Z,579.00
2023-04-04T07:20:07.943Z,578.00
2023-04-04T07:21:07.944Z,578.00
2023-04-04T07:22:07.924Z,578.00
2023-04-04T07:23:07.943Z,576.00
2023-04-04T07:24:07.945Z,577.00
2023-04-04T07:25:07.926Z,575.00
2023-04-04T07:26:07.949Z,572.00
2023-04-04T07:27:08.040Z,573.00
2023-04-04T07:28:12.772Z,574.00
2023-04-04T07:29:09.072Z,574.00
2023-04-04T07:30:08.061Z,573.00
2023-04-04T07:31:08.055Z,573.00
2023-04-04T07:32:08.146Z,572.00
2023-04-04T07:33:08.147Z,574.00
2023-04-04T07:34:08.073Z,574.00
2023-04-04T07:35:08.114Z,576.00
2023-04-04T07:36:08.125Z,576.00
2023-04-04T07:37:08.017Z,575.00
2023-04-04T07:38:08.062Z,575.00
2023-04-04T07:39:08.173Z,574.00
2023-04-04T07:40:08.210Z,573.00
2023-04-04T07:41:08.262Z,573.00
2023-04-04T07:42:08.339Z,570.00
2023-04-04T07:43:08.376Z,570.00
2023-04-04T07:44:08.448Z,570.00
2023-04-04T07:45:08.483Z,572.00
2023-04-04T07:46:08.605Z,576.00
2023-04-04T07:47:10.295Z,575.00
2023-04-04T07:48:08.727Z,576.00
2023-04-04T07:49:08.789Z,575.00
2023-04-04T07:50:08.825Z,575.00
2023-04-04T07:51:08.893Z,576.00
2023-04-04T07:52:08.974Z,576.00
2023-04-04T07:53:09.013Z,576.00
2023-04-04T07:54:09.034Z,575.00
2023-04-04T07:55:09.098Z,573.00
2023-04-04T07:56:09.133Z,573.00
2023-04-04T07:57:09.194Z,569.00
2023-04-04T07:58:09.258Z,571.00
2023-04-04T07:59:09.316Z,570.00
2023-04-04T08:00:09.379Z,571.00
2023-04-04T08:01:09.381Z,572.00
2023-04-04T08:02:09.420Z,574.00
2023-04-04T08:03:09.525Z,575.00
2023-04-04T08:04:09.530Z,574.00
2023-04-04T08:05:09.541Z,574.00
2023-04-04T08:06:09.552Z,573.00
2023-04-04T08:07:09.627Z,575.00
2023-04-04T08:08:09.656Z,575.00
2023-04-04T08:09:09.655Z,573.00
2023-04-04T08:10:09.688Z,573.00
2023-04-04T08:11:09.706Z,573.00
2023-04-04T08:12:09.709Z,571.00
2023-04-04T08:13:09.798Z,573.00
2023-04-04T08:14:09.782Z,572.00
2023-04-04T08:15:09.781Z,573.00
2023-04-04T08:16:09.816Z,571.00
2023-04-04T08:17:09.842Z,570.00
2023-04-04T08:18:09.856Z,571.00
2023-04-04T08:19:09.839Z,569.00
2023-04-04T08:20:09.870Z,568.00
2023-04-04T08:21:09.847Z,567.00
2023-04-04T08:22:09.848Z,566.00
2023-04-04T08:23:09.905Z,565.00
2023-04-04T08:24:09.908Z,566.00
2023-04-04T08:25:09.853Z,566.00
2023-04-04T08:26:09.854Z,568.00
2023-04-04T08:27:09.862Z,569.00
2023-04-04T08:28:09.899Z,570.00
2023-04-04T08:29:09.886Z,570.00
2023-04-04T08:30:09.873Z,570.00
2023-04-04T08:31:09.889Z,572.00
2023-04-04T08:32:09.865Z,572.00
2023-04-04T08:33:09.929Z,573.00
2023-04-04T08:34:09.866Z,573.00
2023-04-04T08:35:09.890Z,571.00
2023-04-04T08:36:09.945Z,572.00
2023-04-04T08:37:09.874Z,574.00
2023-04-04T08:38:09.855Z,575.00
2023-04-04T08:39:09.851Z,578.00
2023-04-04T08:40:09.878Z,579.00
2023-04-04T08:41:09.875Z,578.00
2023-04-04T08:42:09.848Z,577.00
2023-04-04T08:43:09.875Z,577.00
2023-04-04T08:44:09.876Z,578.00
2023-04-04T08:45:09.937Z,578.00
2023-04-04T08:46:10.291Z,577.00
2023-04-04T08:47:10.060Z,577.00
2023-04-04T08:48:10.024Z,577.00
2023-04-04T08:49:10.063Z,574.00
2023-04-04T08:50:10.138Z,573.00
2023-04-04T08:51:10.186Z,573.00
2023-04-04T08:52:10.257Z,572.00
2023-04-04T08:53:10.316Z,575.00
2023-04-04T08:54:10.320Z,576.00
2023-04-04T08:55:10.395Z,575.00
2023-04-04T08:56:10.454Z,576.00
2023-04-04T08:57:10.497Z,574.00
2023-04-04T08:58:10.560Z,577.00
2023-04-04T08:59:10.653Z,578.00
2023-04-04T09:00:10.830Z,577.00
2023-04-04T09:01:10.836Z,580.00
2023-04-04T09:02:10.945Z,579.00
2023-04-04T09:03:10.921Z,579.00
2023-04-04T09:04:10.993Z,578.00
2023-04-04T09:05:11.274Z,577.00
2023-04-04T09:06:11.089Z,577.00
2023-04-04T09:07:11.160Z,578.00
2023-04-04T09:08:11.248Z,578.00
2023-04-04T09:09:11.278Z,582.00
2023-04-04T09:10:11.326Z,580.00
2023-04-04T09:11:11.397Z,579.00
2023-04-04T09:12:11.461Z,580.00
2023-04-04T09:13:16.020Z,580.00
2023-04-04T09:14:11.541Z,580.00
2023-04-04T09:15:11.545Z,581.00
2023-04-04T09:16:11.501Z,581.00
2023-04-04T09:17:11.491Z,579.00
2023-04-04T09:18:11.488Z,579.00
2023-04-04T09:19:11.481Z,578.00
2023-04-04T09:20:11.489Z,579.00
2023-04-04T09:21:11.453Z,579.00
2023-04-04T09:22:11.488Z,579.00
2023-04-04T09:23:11.497Z,579.00
2023-04-04T09:24:11.437Z,578.00
2023-04-04T09:25:11.523Z,578.00
2023-04-04T09:26:11.539Z,575.00
2023-04-04T09:27:11.605Z,577.00
2023-04-04T09:28:11.669Z,580.00
2023-04-04T09:29:11.731Z,581.00
2023-04-04T09:30:11.763Z,581.00
2023-04-04T09:31:11.829Z,579.00
2023-04-04T09:32:11.979Z,581.00
2023-04-04T09:33:11.919Z,580.00
2023-04-04T09:34:11.993Z,579.00
2023-04-04T09:35:12.032Z,575.00
2023-04-04T09:36:12.296Z,573.00
2023-04-04T09:37:12.137Z,571.00
2023-04-04T09:38:12.195Z,573.00
2023-04-04T09:39:12.259Z,572.00
2023-04-04T09:40:12.324Z,571.00
2023-04-04T09:41:12.318Z,569.00
2023-04-04T09:42:12.361Z,568.00
2023-04-04T09:43:12.424Z,571.00
2023-04-04T09:44:12.466Z,570.00
2023-04-04T09:45:19.542Z,571.00
2023-04-04T09:46:13.532Z,570.00
2023-04-04T09:47:18.033Z,572.00
2023-04-04T09:48:13.617Z,573.00
2023-04-04T09:49:13.563Z,574.00
2023-04-04T09:50:12.494Z,574.00
2023-04-04T09:51:12.486Z,574.00
2023-04-04T09:52:12.461Z,574.00
2023-04-04T09:53:12.436Z,573.00
2023-04-04T09:54:18.619Z,575.00
2023-04-04T09:55:13.447Z,573.00
2023-04-04T09:56:12.418Z,571.00
2023-04-04T09:57:12.428Z,571.00
2023-04-04T09:58:12.416Z,573.00
2023-04-04T09:59:13.684Z,574.00
2023-04-04T10:00:12.403Z,575.00
2023-04-04T10:01:12.396Z,576.00
2023-04-04T10:02:12.364Z,576.00
2023-04-04T10:03:12.374Z,577.00
2023-04-04T10:04:12.420Z,575.00
2023-04-04T10:05:12.377Z,574.00
2023-04-04T10:06:12.346Z,573.00
2023-04-04T10:07:12.351Z,574.00
2023-04-04T10:08:12.406Z,573.00
2023-04-04T10:09:12.443Z,574.00
2023-04-04T10:10:12.521Z,573.00
2023-04-04T10:11:12.798Z,572.00
2023-04-04T10:12:12.538Z,570.00
2023-04-04T10:13:12.626Z,570.00
2023-04-04T10:14:12.694Z,569.00
2023-04-04T10:15:12.733Z,571.00
2023-04-04T10:16:12.945Z,573.00
2023-04-04T10:17:12.766Z,573.00
2023-04-04T10:18:12.802Z,572.00
2023-04-04T10:19:12.874Z,572.00
2023-04-04T10:20:12.897Z,572.00
2023-04-04T10:21:15.794Z,572.00
2023-04-04T10:22:12.959Z,572.00
2023-04-04T10:23:12.919Z,574.00
2023-04-04T10:24:12.901Z,573.00
2023-04-04T10:25:12.903Z,572.00
2023-04-04T10:26:13.312Z,572.00
2023-04-04T10:27:12.892Z,571.00
2023-04-04T10:28:12.882Z,570.00
2023-04-04T10:29:12.911Z,571.00
2023-04-04T10:30:12.931Z,570.00
2023-04-04T10:31:12.918Z,571.00
2023-04-04T10:32:12.893Z,572.00
2023-04-04T10:33:12.872Z,570.00
2023-04-04T10:34:12.985Z,569.00
2023-04-04T10:35:12.873Z,570.00
2023-04-04T10:36:12.903Z,570.00
2023-04-04T10:37:13.405Z,570.00
2023-04-04T10:38:12.848Z,570.00
2023-04-04T10:39:12.829Z,568.00
2023-04-04T10:40:12.837Z,567.00
2023-04-04T10:41:12.827Z,570.00
2023-04-04T10:42:12.799Z,570.00
2023-04-04T10:43:12.809Z,569.00
2023-04-04T10:44:12.799Z,569.00
2023-04-04T10:45:20.399Z,567.00
2023-04-04T10:46:13.800Z,566.00
2023-04-04T10:47:12.788Z,567.00
2023-04-04T10:48:12.811Z,567.00
2023-04-04T10:49:12.786Z,566.00
2023-04-04T10:50:12.742Z,565.00
2023-04-04T10:51:12.763Z,565.00
2023-04-04T10:52:12.722Z,563.00
2023-04-04T10:53:12.737Z,564.00
2023-04-04T10:54:12.724Z,564.00
2023-04-04T10:55:12.719Z,564.00
2023-04-04T10:56:12.724Z,565.00
2023-04-04T10:57:12.699Z,565.00
2023-04-04T10:58:12.683Z,568.00
2023-04-04T10:59:12.767Z,571.00
2023-04-04T11:00:12.745Z,571.00
2023-04-04T11:01:12.769Z,569.00
2023-04-04T11:02:12.831Z,568.00
2023-04-04T11:03:12.842Z,568.00
2023-04-04T11:04:12.942Z,569.00
2023-04-04T11:05:12.945Z,568.00
2023-04-04T11:06:12.919Z,568.00
2023-04-04T11:07:12.964Z,568.00
2023-04-04T11:08:12.987Z,567.00
2023-04-04T11:09:13.039Z,567.00
2023-04-04T11:10:13.040Z,563.00
2023-04-04T11:11:22.637Z,563.00
2023-04-04T11:12:14.030Z,561.00
2023-04-04T11:13:13.995Z,562.00
2023-04-04T11:14:13.057Z,560.00
2023-04-04T11:15:13.054Z,564.00
2023-04-04T11:16:13.064Z,563.00
2023-04-04T11:17:13.039Z,563.00
2023-04-04T11:18:28.855Z,562.00
2023-04-04T11:19:14.010Z,561.00
2023-04-04T11:20:12.989Z,561.00
2023-04-04T11:21:12.986Z,559.00
2023-04-04T11:22:12.974Z,562.00
2023-04-04T11:23:12.979Z,566.00
2023-04-04T11:24:12.983Z,568.00
2023-04-04T11:25:12.944Z,568.00
2023-04-04T11:26:12.951Z,569.00
2023-04-04T11:27:12.948Z,568.00
2023-04-04T11:28:12.945Z,567.00
2023-04-04T11:29:12.965Z,565.00
2023-04-04T11:30:12.925Z,565.00
2023-04-04T11:31:12.931Z,566.00
2023-04-04T11:32:13.016Z,564.00
2023-04-04T11:33:13.021Z,566.00
2023-04-04T11:34:13.048Z,567.00
2023-04-04T11:35:13.074Z,570.00
2023-04-04T11:36:13.159Z,570.00
2023-04-04T11:37:13.120Z,569.00
2023-04-04T11:38:13.171Z,571.00
2023-04-04T11:39:13.210Z,571.00
2023-04-04T11:40:13.230Z,572.00
2023-04-04T11:41:13.294Z,574.00
2023-04-04T11:42:13.374Z,574.00
2023-04-04T11:43:13.395Z,575.00
2023-04-04T11:44:13.410Z,575.00
2023-04-04T11:45:13.410Z,573.00
2023-04-04T11:46:13.574Z,571.00
2023-04-04T11:47:13.626Z,572.00
2023-04-04T11:48:13.558Z,572.00
2023-04-04T11:49:13.668Z,570.00
2023-04-04T11:50:13.682Z,570.00
2023-04-04T11:51:13.724Z,569.00
2023-04-04T11:52:13.749Z,570.00
2023-04-04T11:53:13.794Z,570.00
2023-04-04T11:54:13.890Z,568.00
2023-04-04T11:55:13.900Z,568.00
2023-04-04T11:56:13.942Z,569.00
2023-04-04T11:57:14.018Z,569.00
2023-04-04T11:58:14.048Z,568.00
2023-04-04T11:59:14.154Z,571.00
2023-04-04T12:00:14.140Z,572.00
2023-04-04T12:01:14.183Z,570.00
2023-04-04T12:02:14.240Z,568.00
2023-04-04T12:03:14.386Z,568.00
2023-04-04T12:04:14.347Z,566.00
2023-04-04T12:05:14.439Z,565.00
2023-04-04T12:06:14.475Z,565.00
2023-04-04T12:07:14.464Z,563.00
2023-04-04T12:08:14.593Z,562.00
2023-04-04T12:09:14.571Z,562.00
2023-04-04T12:10:14.606Z,562.00
2023-04-04T12:11:14.638Z,563.00
2023-04-04T12:12:14.715Z,565.00
2023-04-04T12:13:14.787Z,563.00
2023-04-04T12:14:14.817Z,560.00
2023-04-04T12:15:17.452Z,561.00
2023-04-04T12:16:14.898Z,564.00
2023-04-04T12:17:14.830Z,563.00
2023-04-04T12:18:14.846Z,562.00
2023-04-04T12:19:14.852Z,563.00
2023-04-04T12:20:14.817Z,562.00
2023-04-04T12:21:14.833Z,562.00
2023-04-04T12:22:14.853Z,562.00
2023-04-04T12:23:14.828Z,564.00
2023-04-04T12:24:14.810Z,564.00
2023-04-04T12:25:14.790Z,562.00
2023-04-04T12:26:14.802Z,559.00
2023-04-04T12:27:14.775Z,558.00
2023-04-04T12:28:14.770Z,559.00
2023-04-04T12:29:14.770Z,556.00